createdAt,value
2019-05-01T00:01:54.819Z,1009.45
2019-05-01T00:06:54.836Z,1009.36
2019-05-01T00:11:53.990Z,1009.25
2019-05-01T00:16:53.834Z,1009.33
2019-05-01T00:21:53.013Z,1009.22
2019-05-01T00:26:52.850Z,1009.20
2019-05-01T00:31:52.833Z,1009.23
2019-05-01T00:36:52.884Z,1009.06
2019-05-01T00:41:52.840Z,1009.05
2019-05-01T00:46:52.167Z,1009.01
2019-05-01T00:51:53.315Z,1009.03
2019-05-01T00:56:52.838Z,1008.99
2019-05-01T01:01:52.898Z,1008.89
2019-05-01T01:06:53.057Z,1008.83
2019-05-01T01:11:52.870Z,1008.83
2019-05-01T01:16:53.020Z,1008.70
2019-05-01T01:21:51.849Z,1008.74
2019-05-01T01:26:52.896Z,1008.72
2019-05-01T01:31:52.835Z,1008.63
2019-05-01T01:36:52.188Z,1008.67
2019-05-01T01:41:52.053Z,1008.58
2019-05-01T01:46:52.868Z,1008.66
2019-05-01T01:51:52.988Z,1008.65
2019-05-01T01:56:52.790Z,1008.59
2019-05-01T02:06:54.860Z,1008.46
2019-05-01T02:11:53.803Z,1008.54
2019-05-01T02:16:54.151Z,1008.55
2019-05-01T02:21:53.843Z,1008.45
2019-05-01T02:26:52.882Z,1008.45
2019-05-01T02:31:52.207Z,1008.50
2019-05-01T02:36:50.894Z,1008.40
2019-05-01T02:41:50.750Z,1008.43
2019-05-01T02:46:49.899Z,1008.37
2019-05-01T02:51:49.868Z,1008.36
2019-05-01T02:56:48.921Z,1008.36
2019-05-01T03:01:48.381Z,1008.38
2019-05-01T03:06:46.962Z,1008.32
2019-05-01T03:11:47.121Z,1008.38
2019-05-01T03:16:46.882Z,1008.36
2019-05-01T03:21:46.985Z,1008.33
2019-05-01T03:26:46.038Z,1008.33
2019-05-01T03:32:13.303Z,1008.32
2019-05-01T03:36:45.859Z,1008.37
2019-05-01T03:41:45.136Z,1008.28
2019-05-01T03:46:44.115Z,1008.34
2019-05-01T03:51:44.092Z,1008.29
2019-05-01T03:56:43.059Z,1008.37
2019-05-01T04:01:42.836Z,1008.33
2019-05-01T04:06:42.903Z,1008.34
2019-05-01T04:11:42.914Z,1008.26
2019-05-01T04:21:41.870Z,1008.27
2019-05-01T04:26:40.861Z,1008.20
2019-05-01T04:31:40.017Z,1008.32
2019-05-01T04:36:40.241Z,1008.32
2019-05-01T04:41:40.084Z,1008.33
2019-05-01T04:46:39.875Z,1008.28
2019-05-01T04:51:39.173Z,1008.31
2019-05-01T04:56:38.326Z,1008.37
2019-05-01T05:01:39.139Z,1008.43
2019-05-01T05:06:37.876Z,1008.35
2019-05-01T05:11:37.006Z,1008.41
2019-05-01T05:16:37.896Z,1008.33
2019-05-01T05:21:37.868Z,1008.39
2019-05-01T05:26:36.917Z,1008.32
2019-05-01T05:31:35.896Z,1008.32
2019-05-01T05:36:34.890Z,1008.43
2019-05-01T05:41:36.020Z,1008.44
2019-05-01T05:46:35.981Z,1008.39
2019-05-01T05:51:35.979Z,1008.36
2019-05-01T05:56:35.119Z,1008.36
2019-05-01T06:01:35.917Z,1008.34
2019-05-01T06:06:37.302Z,1008.36
2019-05-01T06:11:35.889Z,1008.36
2019-05-01T06:16:35.877Z,1008.31
2019-05-01T06:21:35.924Z,1008.31
2019-05-01T06:26:37.347Z,1008.33
2019-05-01T06:31:34.886Z,1008.31
2019-05-01T06:36:35.966Z,1008.39
2019-05-01T06:41:42.161Z,1008.36
2019-05-01T06:46:35.344Z,1008.44
2019-05-01T06:51:33.919Z,1008.50
2019-05-01T06:56:32.980Z,1008.53
2019-05-01T07:01:32.976Z,1008.48
2019-05-01T07:06:33.051Z,1008.52
2019-05-01T07:11:32.253Z,1008.58
2019-05-01T07:16:33.341Z,1008.52
2019-05-01T07:21:32.722Z,1008.61
2019-05-01T07:26:30.928Z,1008.45
2019-05-01T07:31:32.611Z,1008.52
2019-05-01T07:36:31.149Z,1008.44
2019-05-01T07:41:34.050Z,1008.47
2019-05-01T07:46:30.946Z,1008.49
2019-05-01T07:51:31.974Z,1008.50
2019-05-01T07:56:32.092Z,1008.58
2019-05-01T08:01:32.896Z,1008.58
2019-05-01T08:06:32.573Z,1008.51
2019-05-01T08:11:32.364Z,1008.49
2019-05-01T08:16:32.321Z,1008.57
2019-05-01T08:21:31.325Z,1008.60
2019-05-01T08:26:30.439Z,1008.66
2019-05-01T08:31:31.314Z,1008.65
2019-05-01T08:36:30.311Z,1008.68
2019-05-01T08:41:31.879Z,1008.63
2019-05-01T08:46:29.288Z,1008.60
2019-05-01T08:51:30.002Z,1008.48
2019-05-01T08:56:29.330Z,1008.54
2019-05-01T09:01:29.311Z,1008.52
2019-05-01T09:06:34.792Z,1008.51
2019-05-01T09:11:31.735Z,1008.52
2019-05-01T09:16:28.331Z,1008.48
2019-05-01T09:21:27.327Z,1008.49
2019-05-01T09:26:26.391Z,1008.44
2019-05-01T09:31:26.371Z,1008.53
2019-05-01T09:36:26.361Z,1008.44
2019-05-01T09:41:37.635Z,1008.39
2019-05-01T09:46:26.504Z,1008.41
2019-05-01T09:51:27.553Z,1008.42
2019-05-01T09:56:27.234Z,1008.35
2019-05-01T10:01:31.677Z,1008.30
2019-05-01T10:06:27.347Z,1008.20
2019-05-01T10:11:27.359Z,1008.21
2019-05-01T10:16:27.347Z,1008.09
2019-05-01T10:21:27.118Z,1008.12
2019-05-01T10:26:25.787Z,1008.11
2019-05-01T10:31:25.411Z,1008.03
2019-05-01T10:36:25.323Z,1007.99
2019-05-01T10:41:24.596Z,1007.95
2019-05-01T10:46:25.396Z,1007.91
2019-05-01T10:51:24.529Z,1007.87
2019-05-01T10:56:24.326Z,1007.83
2019-05-01T11:01:23.457Z,1007.80
2019-05-01T11:06:24.310Z,1007.76
2019-05-01T11:11:23.262Z,1007.74
2019-05-01T11:21:22.271Z,1007.58
2019-05-01T11:26:21.387Z,1007.49
2019-05-01T11:31:20.456Z,1007.44
2019-05-01T11:36:21.501Z,1007.46
2019-05-01T11:41:21.332Z,1007.34
2019-05-01T11:46:22.432Z,1007.24
2019-05-01T11:56:23.640Z,1007.26
2019-05-01T12:01:22.560Z,1007.23
2019-05-01T12:06:23.265Z,1007.20
2019-05-01T12:11:22.340Z,1007.12
2019-05-01T12:16:21.582Z,1007.11
2019-05-01T12:21:21.502Z,1007.12
2019-05-01T12:26:20.706Z,1007.09
2019-05-01T12:36:20.732Z,1006.99
2019-05-01T12:41:20.588Z,1006.88
2019-05-01T12:46:20.352Z,1006.82
2019-05-01T12:51:20.569Z,1006.78
2019-05-01T12:56:20.329Z,1006.75
2019-05-01T13:01:20.340Z,1006.65
2019-05-01T13:06:20.453Z,1006.68
2019-05-01T13:11:20.306Z,1006.60
2019-05-01T13:16:19.530Z,1006.58
2019-05-01T13:21:18.661Z,1006.50
2019-05-01T13:26:17.635Z,1006.47
2019-05-01T13:31:18.304Z,1006.27
2019-05-01T13:36:18.379Z,1006.33
2019-05-01T13:41:18.297Z,1006.23
2019-05-01T13:46:17.595Z,1006.16
2019-05-01T13:51:17.280Z,1005.98
2019-05-01T13:56:16.674Z,1006.04
2019-05-01T14:01:15.827Z,1006.01
2019-05-01T14:06:14.705Z,1005.89
2019-05-01T14:11:14.303Z,1005.74
2019-05-01T14:16:14.538Z,1005.68
2019-05-01T14:21:13.559Z,1005.66
2019-05-01T14:26:13.334Z,1005.66
2019-05-01T14:31:13.294Z,1005.58
2019-05-01T14:36:13.302Z,1005.53
2019-05-01T14:41:14.337Z,1005.45
2019-05-01T14:46:13.569Z,1005.35
2019-05-01T14:51:13.246Z,1005.39
2019-05-01T14:56:12.704Z,1005.26
2019-05-01T15:01:13.316Z,1005.24
2019-05-01T15:06:13.259Z,1005.21
2019-05-01T15:11:13.309Z,1005.10
2019-05-01T15:16:12.274Z,1005.11
2019-05-01T15:21:13.234Z,1005.10
2019-05-01T15:31:14.244Z,1005.09
2019-05-01T15:36:13.498Z,1005.06
2019-05-01T15:41:13.282Z,1005.01
2019-05-01T15:46:13.307Z,1004.98
2019-05-01T15:51:12.226Z,1004.95
2019-05-01T16:01:11.298Z,1004.87
2019-05-01T16:06:10.282Z,1004.82
2019-05-01T16:11:10.237Z,1004.72
2019-05-01T16:16:10.252Z,1004.80
2019-05-01T16:21:10.469Z,1004.70
2019-05-01T16:26:11.132Z,1004.79
2019-05-01T16:31:09.252Z,1004.69
2019-05-01T16:36:08.379Z,1004.56
2019-05-01T16:41:08.470Z,1004.60
2019-05-01T16:46:08.218Z,1004.62
2019-05-01T16:51:08.259Z,1004.49
2019-05-01T16:56:07.943Z,1004.42
2019-05-01T17:01:07.300Z,1004.36
2019-05-01T17:06:05.307Z,1004.32
2019-05-01T17:11:04.623Z,1004.28
2019-05-01T17:16:04.410Z,1004.26
2019-05-01T17:21:03.356Z,1004.27
2019-05-01T17:26:02.823Z,1004.26
2019-05-01T17:31:02.302Z,1004.14
2019-05-01T17:36:02.293Z,1004.13
2019-05-01T17:41:02.201Z,1004.22
2019-05-01T17:46:05.852Z,1004.26
2019-05-01T17:51:02.338Z,1004.33
2019-05-01T17:56:03.084Z,1004.24
2019-05-01T18:01:00.838Z,1004.26
2019-05-01T18:06:01.432Z,1004.33
2019-05-01T18:10:59.385Z,1004.21
2019-05-01T18:15:59.251Z,1004.23
2019-05-01T18:20:59.169Z,1004.25
2019-05-01T18:30:59.191Z,1004.22
2019-05-01T18:35:59.277Z,1004.21
2019-05-01T18:40:58.557Z,1004.24
2019-05-01T18:45:58.200Z,1004.12
2019-05-01T18:50:57.391Z,1004.14
2019-05-01T18:56:01.397Z,1004.14
2019-05-01T19:00:57.233Z,1004.19
2019-05-01T19:05:57.285Z,1004.16
2019-05-01T19:10:56.249Z,1004.14
2019-05-01T19:15:55.438Z,1004.16
2019-05-01T19:20:59.856Z,1004.21
2019-05-01T19:25:56.368Z,1004.22
2019-05-01T19:30:53.272Z,1004.15
2019-05-01T19:35:52.704Z,1004.12
2019-05-01T19:40:52.301Z,1004.16
2019-05-01T19:45:51.802Z,1004.09
2019-05-01T19:50:51.229Z,1004.14
2019-05-01T19:55:51.351Z,1004.08
2019-05-01T20:00:50.706Z,1004.13
2019-05-01T20:05:51.243Z,1004.13
2019-05-01T20:10:51.555Z,1004.12
2019-05-01T20:15:51.183Z,1004.05
2019-05-01T20:20:50.526Z,1004.01
2019-05-01T20:30:49.628Z,1004.03
2019-05-01T20:35:50.328Z,1003.93
2019-05-01T20:40:49.282Z,1003.91
2019-05-01T20:45:49.319Z,1003.94
2019-05-01T20:50:48.301Z,1003.91
2019-05-01T20:55:48.530Z,1003.93
2019-05-01T21:00:48.053Z,1003.91
2019-05-01T21:05:48.282Z,1003.95
2019-05-01T21:10:50.586Z,1003.97
2019-05-01T21:15:48.352Z,1003.94
2019-05-01T21:20:47.185Z,1003.94
2019-05-01T21:25:47.353Z,1003.85
2019-05-01T21:30:47.571Z,1003.84
2019-05-01T21:40:46.690Z,1003.81
2019-05-01T21:45:47.267Z,1003.88
2019-05-01T21:50:47.537Z,1003.82
2019-05-01T21:55:47.272Z,1003.81
2019-05-01T22:00:47.230Z,1003.78
2019-05-01T22:05:48.591Z,1003.75
2019-05-01T22:10:52.198Z,1003.82
2019-05-01T22:15:47.132Z,1003.81
2019-05-01T22:20:46.354Z,1003.84
2019-05-01T22:25:45.898Z,1003.78
2019-05-01T22:30:46.451Z,1003.73
2019-05-01T22:35:43.271Z,1003.77
2019-05-01T22:40:42.235Z,1003.80
2019-05-01T22:45:42.373Z,1003.80
2019-05-01T22:50:41.695Z,1003.71
2019-05-01T22:55:41.651Z,1003.65
2019-05-01T23:00:41.213Z,1003.59
2019-05-01T23:05:41.294Z,1003.61
2019-05-01T23:10:47.018Z,1003.53
2019-05-01T23:15:41.458Z,1003.63
2019-05-01T23:20:41.299Z,1003.58
2019-05-01T23:25:42.602Z,1003.56
2019-05-01T23:30:41.278Z,1003.47
2019-05-01T23:35:40.359Z,1003.39
2019-05-01T23:40:39.634Z,1003.36
2019-05-01T23:45:40.290Z,1003.36
2019-05-01T23:50:41.289Z,1003.35
